Time;durP1;ratioP1;P1;durP2;ratioP2;P2;SDS_P1;SDS_P2;PMS_P1;PMS_P2;Temp;Humidity;BMP_temperature;BMP_pressure;BME280_temperature;BME280_humidity;BME280_pressure;Samples;Min_cycle;Max_cycle;Signal;HPM_P1;HPM_P2
2021/12/30 00:01:17;;;;;;;28.67;5.13;;;8.90;99.90;;;;;;5103994;28;20036;-69
2021/12/30 00:03:44;;;;;;;27.98;5.57;;;8.70;99.90;;;;;;5103941;28;20032;-69
2021/12/30 00:06:11;;;;;;;27.52;5.40;;;8.70;99.90;;;;;;5088785;28;20050;-69
2021/12/30 00:08:37;;;;;;;29.02;6.22;;;8.60;99.90;;;;;;5104348;28;20040;-69
2021/12/30 00:11:04;;;;;;;33.63;6.97;;;8.90;99.90;;;;;;5107345;28;20036;-69
2021/12/30 00:13:30;;;;;;;24.92;5.82;;;8.60;99.90;;;;;;5088060;28;20059;-69
2021/12/30 00:15:56;;;;;;;32.08;6.57;;;8.90;99.90;;;;;;5093171;28;20036;-69
2021/12/30 00:18:21;;;;;;;32.33;7.28;;;8.60;99.90;;;;;;5103079;28;20479;-69
2021/12/30 00:20:47;;;;;;;37.25;5.95;;;8.50;99.90;;;;;;5072619;28;20040;-69
2021/12/30 00:23:13;;;;;;;36.90;7.07;;;8.50;99.90;;;;;;5087672;28;20070;-69
2021/12/30 00:25:41;;;;;;;44.75;7.00;;;8.60;99.90;;;;;;5090370;28;20075;-69
2021/12/30 00:28:22;;;;;;;34.60;5.93;;;8.50;99.90;;;;;;5091650;28;20081;-69
2021/12/30 00:30:49;;;;;;;35.33;6.90;;;8.40;99.90;;;;;;5110474;28;20143;-69
2021/12/30 00:33:15;;;;;;;34.13;7.05;;;8.50;99.90;;;;;;5091703;28;20083;-69
2021/12/30 00:35:41;;;;;;;43.65;7.50;;;8.60;99.90;;;;;;5088757;28;20097;-69
2021/12/30 00:38:07;;;;;;;47.97;7.85;;;8.40;99.90;;;;;;5091158;28;20519;-69
2021/12/30 00:40:34;;;;;;;44.15;6.80;;;8.30;99.90;;;;;;5110028;28;20426;-69
2021/12/30 00:43:00;;;;;;;50.38;8.00;;;8.30;99.90;;;;;;5104892;28;20046;-69
2021/12/30 00:45:28;;;;;;;41.38;6.97;;;8.30;99.90;;;;;;5105933;28;20040;-69
2021/12/30 00:47:54;;;;;;;59.45;7.72;;;8.30;99.90;;;;;;5091490;28;20048;-69
2021/12/30 00:50:20;;;;;;;40.72;8.75;;;8.30;99.90;;;;;;5083440;28;20044;-69
2021/12/30 00:52:45;;;;;;;52.50;8.25;;;8.50;99.90;;;;;;5107262;28;20031;-69
2021/12/30 00:55:11;;;;;;;47.72;10.05;;;8.20;99.90;;;;;;5085960;28;20131;-69
2021/12/30 00:57:37;;;;;;;45.22;9.48;;;8.20;99.90;;;;;;5109105;28;20035;-69
2021/12/30 01:00:09;;;;;;;44.92;7.70;;;8.60;99.90;;;;;;5106545;28;20042;-69
2021/12/30 01:02:35;;;;;;;52.95;9.55;;;8.10;99.90;;;;;;5089812;28;20035;-69
2021/12/30 01:05:00;;;;;;;47.40;8.98;;;8.10;99.90;;;;;;5107096;28;21254;-69
2021/12/30 01:07:26;;;;;;;46.25;8.98;;;8.10;99.90;;;;;;5091203;28;20036;-69
2021/12/30 01:09:52;;;;;;;37.25;7.65;;;8.10;99.90;;;;;;5104965;28;20087;-69
2021/12/30 01:12:19;;;;;;;46.22;9.38;;;8.10;99.90;;;;;;5086059;28;20127;-69
2021/12/30 01:14:47;;;;;;;44.15;8.70;;;8.40;99.90;;;;;;5107656;28;20054;-69
2021/12/30 01:17:20;;;;;;;45.20;8.50;;;8.10;99.90;;;;;;5081716;28;20044;-69
2021/12/30 01:19:47;;;;;;;44.08;8.93;;;8.10;99.90;;;;;;5082620;28;20036;-69
2021/12/30 01:22:19;;;;;;;42.42;7.90;;;8.10;99.90;;;;;;5106491;28;20057;-69
2021/12/30 01:24:46;;;;;;;50.35;7.90;;;8.20;99.90;;;;;;5110588;28;20036;-69
2021/12/30 01:27:12;;;;;;;41.28;8.23;;;8.30;99.90;;;;;;5103411;28;20428;-69
2021/12/30 01:29:37;;;;;;;36.05;6.78;;;8.00;99.90;;;;;;5102263;28;20043;-69
2021/12/30 01:32:04;;;;;;;34.05;7.13;;;8.10;99.90;;;;;;5106124;28;20031;-69
2021/12/30 01:34:30;;;;;;;34.33;8.73;;;8.10;99.90;;;;;;5091757;28;20067;-69
2021/12/30 01:36:56;;;;;;;31.85;6.60;;;8.10;99.90;;;;;;5107883;28;20039;-69
2021/12/30 01:39:22;;;;;;;46.08;8.73;;;8.10;99.90;;;;;;5083996;28;20494;-69
2021/12/30 01:41:49;;;;;;;38.72;6.75;;;8.10;99.90;;;;;;5106853;28;20039;-70
2021/12/30 01:44:15;;;;;;;46.40;7.28;;;8.10;99.90;;;;;;5084543;28;20039;-69
2021/12/30 01:46:43;;;;;;;34.15;7.60;;;8.10;99.90;;;;;;5086919;28;20425;-69
2021/12/30 01:49:11;;;;;;;38.85;7.53;;;8.10;99.90;;;;;;5084501;28;20051;-69
2021/12/30 01:51:37;;;;;;;37.45;7.45;;;8.10;99.90;;;;;;5096301;28;20119;-69
2021/12/30 01:54:04;;;;;;;45.28;8.93;;;8.10;99.90;;;;;;5098247;28;20035;-69
2021/12/30 01:56:30;;;;;;;45.20;6.68;;;8.10;99.90;;;;;;5102152;28;20044;-69
2021/12/30 01:58:56;;;;;;;40.65;7.30;;;8.10;99.90;;;;;;5050578;28;20129;-69
2021/12/30 02:01:23;;;;;;;40.75;7.20;;;8.10;99.90;;;;;;5105762;28;20036;-69
2021/12/30 02:03:49;;;;;;;42.20;7.55;;;8.30;99.90;;;;;;5090778;28;20040;-69
2021/12/30 02:06:16;;;;;;;46.80;8.73;;;8.10;99.90;;;;;;5105324;28;20113;-69
2021/12/30 02:08:41;;;;;;;41.53;8.98;;;8.10;99.90;;;;;;5105357;28;20114;-69
2021/12/30 02:11:07;;;;;;;41.85;7.38;;;8.20;99.90;;;;;;5088791;28;20193;-69
2021/12/30 02:13:33;;;;;;;31.65;7.72;;;8.20;99.90;;;;;;5085984;28;20511;-69
2021/12/30 02:16:02;;;;;;;39.03;7.13;;;8.20;99.90;;;;;;5090447;28;20154;-69
2021/12/30 02:18:28;;;;;;;34.63;6.40;;;8.20;99.90;;;;;;5085702;28;20051;-69
2021/12/30 02:21:00;;;;;;;37.70;7.70;;;8.60;99.90;;;;;;5102927;28;20043;-69
2021/12/30 02:23:27;;;;;;;;;;;8.30;99.90;;;;;;5090125;28;20046;-69
2021/12/30 02:25:55;;;;;;;40.90;7.47;;;8.30;99.90;;;;;;5075147;28;19922;-69
2021/12/30 02:28:26;;;;;;;38.70;7.35;;;8.30;99.90;;;;;;5102521;28;20058;-69
2021/12/30 02:30:53;;;;;;;37.13;6.63;;;8.30;99.90;;;;;;5081840;28;20047;-69
2021/12/30 02:33:20;;;;;;;29.73;6.72;;;8.20;99.90;;;;;;5101054;28;20357;-69
2021/12/30 02:35:45;;;;;;;37.67;7.80;;;8.20;99.90;;;;;;5108842;28;20512;-69
2021/12/30 02:38:12;;;;;;;38.53;7.03;;;8.30;99.90;;;;;;5087254;28;20093;-69
2021/12/30 02:40:41;;;;;;;29.38;6.28;;;8.10;99.90;;;;;;5100619;28;20043;-69
2021/12/30 02:43:11;;;;;;;35.28;7.75;;;8.10;99.90;;;;;;5103223;28;20066;-69
2021/12/30 02:45:37;;;;;;;35.60;9.20;;;8.10;99.90;;;;;;5087340;28;20055;-69
2021/12/30 02:48:03;;;;;;;38.90;7.10;;;8.40;99.90;;;;;;5099469;28;20063;-69
2021/12/30 02:50:29;;;;;;;48.75;9.00;;;8.00;99.90;;;;;;5083508;28;20402;-69
2021/12/30 02:52:55;;;;;;;45.65;9.38;;;8.00;99.90;;;;;;5106587;28;20046;-69
2021/12/30 02:55:22;;;;;;;43.22;9.27;;;8.00;99.90;;;;;;5107703;28;20031;-69
2021/12/30 02:57:48;;;;;;;45.75;10.20;;;8.00;99.90;;;;;;5099782;28;20043;-69
2021/12/30 03:00:14;;;;;;;50.90;10.30;;;8.00;99.90;;;;;;5100649;28;20039;-69
2021/12/30 03:02:40;;;;;;;45.17;12.90;;;8.10;99.90;;;;;;5104759;28;20032;-69
2021/12/30 03:05:07;;;;;;;61.83;12.50;;;8.50;99.90;;;;;;5101695;28;20031;-69
2021/12/30 03:07:34;;;;;;;55.60;13.45;;;8.20;99.90;;;;;;5106717;28;20058;-69
2021/12/30 03:10:00;;;;;;;55.72;15.50;;;8.30;99.90;;;;;;5066998;28;20040;-69
2021/12/30 03:12:26;;;;;;;58.30;14.80;;;8.40;99.90;;;;;;5088300;28;20107;-69
2021/12/30 03:14:53;;;;;;;66.07;15.18;;;8.50;99.90;;;;;;5098783;28;20118;-69
2021/12/30 03:17:19;;;;;;;69.50;17.25;;;9.20;99.90;;;;;;5103816;28;20093;-69
2021/12/30 03:19:45;;;;;;;49.42;15.90;;;8.60;99.90;;;;;;5103667;28;20036;-69
2021/12/30 03:22:12;;;;;;;53.53;15.40;;;8.70;99.90;;;;;;5088979;28;20047;-69
2021/12/30 03:24:37;;;;;;;66.20;17.13;;;8.70;99.90;;;;;;5070519;28;20134;-69
2021/12/30 03:27:05;;;;;;;60.10;16.98;;;8.80;99.90;;;;;;5107923;28;20432;-69
2021/12/30 03:29:32;;;;;;;56.50;17.08;;;8.80;99.90;;;;;;5083615;28;20035;-69
2021/12/30 03:31:58;;;;;;;61.63;18.77;;;8.80;99.90;;;;;;5100168;28;20114;-69
2021/12/30 03:34:23;;;;;;;65.25;17.70;;;8.80;99.90;;;;;;5107073;28;20140;-69
2021/12/30 03:36:49;;;;;;;63.22;18.45;;;8.90;99.90;;;;;;5070796;28;20039;-69
2021/12/30 03:39:15;;;;;;;53.38;17.17;;;8.90;99.90;;;;;;5102225;28;20036;-69
2021/12/30 03:41:41;;;;;;;60.13;16.20;;;9.00;99.90;;;;;;5103502;28;20097;-69
2021/12/30 03:44:06;;;;;;;59.10;15.95;;;9.00;99.90;;;;;;5084136;28;20042;-69
2021/12/30 03:46:32;;;;;;;55.40;17.20;;;9.00;99.90;;;;;;5100674;28;20085;-69
2021/12/30 03:49:00;;;;;;;56.20;17.65;;;9.00;99.90;;;;;;5101812;28;20035;-69
2021/12/30 03:51:26;;;;;;;58.40;16.25;;;9.00;99.90;;;;;;5107013;28;20044;-69
2021/12/30 03:53:57;;;;;;;62.22;17.85;;;9.00;99.90;;;;;;5070410;28;20031;-69
2021/12/30 03:56:25;;;;;;;57.60;17.20;;;9.10;99.90;;;;;;5090131;28;20047;-69
2021/12/30 03:58:51;;;;;;;50.67;15.25;;;9.10;99.90;;;;;;5097366;28;20380;-69
2021/12/30 04:01:20;;;;;;;49.03;14.20;;;9.60;99.90;;;;;;5105496;28;20047;-69
2021/12/30 04:03:47;;;;;;;58.92;17.27;;;9.20;99.90;;;;;;5099474;28;20047;-69
2021/12/30 04:06:13;;;;;;;71.22;19.08;;;9.20;99.90;;;;;;5104162;28;20039;-69
2021/12/30 04:08:39;;;;;;;60.10;17.05;;;9.20;99.90;;;;;;5087067;28;20056;-69
2021/12/30 04:11:05;;;;;;;55.00;17.58;;;9.20;99.90;;;;;;5089204;28;20054;-69
2021/12/30 04:13:31;;;;;;;56.05;15.50;;;9.30;99.90;;;;;;5104440;28;20040;-69
2021/12/30 04:15:57;;;;;;;51.83;15.63;;;9.20;99.90;;;;;;5088967;28;20067;-69
2021/12/30 04:18:23;;;;;;;60.50;17.30;;;9.60;99.90;;;;;;5100011;28;20557;-69
2021/12/30 04:20:49;;;;;;;69.32;18.70;;;9.30;99.90;;;;;;5084850;28;20115;-69
2021/12/30 04:23:15;;;;;;;69.45;16.75;;;9.30;99.90;;;;;;5105593;28;20441;-69
2021/12/30 04:25:41;;;;;;;62.50;17.00;;;9.20;99.90;;;;;;5084450;28;20047;-69
2021/12/30 04:28:07;;;;;;;55.90;15.57;;;9.50;99.90;;;;;;5105665;28;20162;-69
2021/12/30 04:30:32;;;;;;;52.67;15.77;;;9.30;99.90;;;;;;5094977;28;20043;-69
2021/12/30 04:32:58;;;;;;;50.58;15.45;;;9.30;99.90;;;;;;5068133;28;20078;-69
2021/12/30 04:35:24;;;;;;;46.90;14.52;;;9.30;99.90;;;;;;5074820;28;20463;-69
2021/12/30 04:37:50;;;;;;;51.83;13.85;;;9.40;99.90;;;;;;5088167;28;20039;-69
2021/12/30 04:40:16;;;;;;;59.38;16.05;;;9.40;99.90;;;;;;5101617;28;20044;-69
2021/12/30 04:42:43;;;;;;;53.15;15.55;;;9.50;99.90;;;;;;5106987;28;20039;-69
2021/12/30 04:45:11;;;;;;;56.13;15.75;;;9.50;99.90;;;;;;5078785;28;20396;-69
2021/12/30 04:47:40;;;;;;;60.10;16.67;;;9.50;99.90;;;;;;5106770;28;20059;-69
2021/12/30 04:50:10;;;;;;;63.28;16.73;;;9.60;99.90;;;;;;5084058;28;20044;-69
2021/12/30 04:52:36;;;;;;;56.90;14.07;;;9.60;99.90;;;;;;5103244;28;20047;-69
2021/12/30 04:55:03;;;;;;;66.70;16.90;;;10.00;99.90;;;;;;5084261;28;20027;-69
2021/12/30 04:57:29;;;;;;;65.05;18.10;;;9.70;99.90;;;;;;5108908;28;20035;-69
2021/12/30 04:59:55;;;;;;;59.67;17.25;;;9.80;99.90;;;;;;5105755;28;20100;-69
2021/12/30 05:02:23;;;;;;;58.85;16.52;;;9.80;99.90;;;;;;5105958;28;20042;-69
2021/12/30 05:04:49;;;;;;;70.28;18.60;;;9.80;99.90;;;;;;5076056;28;20051;-69
2021/12/30 05:07:15;;;;;;;56.80;16.55;;;9.90;99.90;;;;;;5111483;28;20036;-69
2021/12/30 05:09:40;;;;;;;64.78;15.63;;;9.90;99.90;;;;;;5109520;28;20380;-69
2021/12/30 05:12:07;;;;;;;54.10;15.25;;;9.90;99.90;;;;;;5111769;28;20045;-69
2021/12/30 05:14:32;;;;;;;56.88;15.77;;;10.00;99.90;;;;;;5091253;28;20190;-70
2021/12/30 05:17:03;;;;;;;60.05;16.73;;;10.10;99.90;;;;;;5090774;28;20138;-69
2021/12/30 05:19:30;;;;;;;51.50;14.77;;;10.20;99.90;;;;;;5092234;28;20031;-69
2021/12/30 05:21:56;;;;;;;41.55;14.30;;;10.20;99.90;;;;;;5087882;28;20043;-69
2021/12/30 05:24:22;;;;;;;41.80;12.30;;;10.20;99.90;;;;;;5089072;28;20475;-69
2021/12/30 05:26:47;;;;;;;48.50;13.70;;;10.20;99.90;;;;;;5109134;28;20115;-69
2021/12/30 05:29:15;;;;;;;48.70;13.73;;;10.20;99.90;;;;;;5074090;28;20093;-69
2021/12/30 05:31:41;;;;;;;44.97;15.50;;;10.70;99.90;;;;;;5083625;28;20047;-70
2021/12/30 05:34:07;;;;;;;37.63;13.50;;;10.20;99.90;;;;;;5085945;28;20397;-69
2021/12/30 05:36:33;;;;;;;35.05;12.63;;;10.30;99.90;;;;;;5091666;28;20036;-69
2021/12/30 05:38:58;;;;;;;35.78;13.10;;;10.30;99.90;;;;;;5104067;28;20023;-69
2021/12/30 05:41:26;;;;;;;35.10;13.05;;;10.30;99.90;;;;;;5102004;28;20527;-69
2021/12/30 05:43:52;;;;;;;32.60;12.25;;;10.50;99.90;;;;;;5071683;28;20035;-69
2021/12/30 05:46:18;;;;;;;29.60;12.00;;;10.30;99.90;;;;;;5111202;27;20401;-69
2021/12/30 05:48:44;;;;;;;35.65;12.48;;;10.40;99.90;;;;;;5087126;28;20039;-69
2021/12/30 05:51:09;;;;;;;29.75;12.77;;;10.40;99.90;;;;;;5106980;28;20089;-69
2021/12/30 05:53:35;;;;;;;24.92;11.15;;;10.40;99.90;;;;;;5106696;28;20040;-69
2021/12/30 05:56:01;;;;;;;23.08;10.70;;;10.50;99.90;;;;;;5106311;28;20066;-69
2021/12/30 05:58:27;;;;;;;20.98;9.75;;;10.50;99.90;;;;;;5109870;28;20157;-69
2021/12/30 06:00:53;;;;;;;17.10;9.13;;;10.70;99.90;;;;;;5071968;28;20138;-69
2021/12/30 06:03:20;;;;;;;21.60;9.60;;;10.50;99.90;;;;;;5089754;28;20046;-69
2021/12/30 06:05:49;;;;;;;19.75;9.30;;;10.50;99.90;;;;;;5104666;28;20395;-69
2021/12/30 06:08:15;;;;;;;23.00;9.38;;;10.60;99.90;;;;;;5108740;28;20043;-69
2021/12/30 06:10:43;;;;;;;22.23;10.38;;;10.60;99.90;;;;;;5104269;28;20122;-69
2021/12/30 06:13:09;;;;;;;18.30;9.73;;;10.70;99.90;;;;;;5091373;28;20043;-69
2021/12/30 06:15:35;;;;;;;19.98;9.98;;;10.60;99.90;;;;;;5086819;28;20508;-69
2021/12/30 06:18:01;;;;;;;27.63;11.30;;;10.60;99.90;;;;;;5104812;28;20055;-69
2021/12/30 06:20:28;;;;;;;19.58;11.48;;;10.70;99.90;;;;;;5087261;28;20229;-69
2021/12/30 06:22:53;;;;;;;30.88;12.27;;;10.70;99.90;;;;;;5105233;28;20035;-69
2021/12/30 06:25:19;;;;;;;35.08;14.90;;;10.70;99.90;;;;;;5107146;28;20043;-69
2021/12/30 06:27:45;;;;;;;47.28;15.93;;;10.70;99.90;;;;;;5083978;28;20444;-69
2021/12/30 06:30:11;;;;;;;54.50;20.30;;;10.70;99.90;;;;;;5108982;28;20043;-69
2021/12/30 06:32:37;;;;;;;53.50;19.80;;;10.80;99.90;;;;;;5101697;28;20077;-69
2021/12/30 06:35:07;;;;;;;51.35;20.40;;;10.70;99.90;;;;;;5103752;28;20039;-70
2021/12/30 06:37:33;;;;;;;55.13;21.47;;;10.80;99.90;;;;;;5084677;28;20082;-69
2021/12/30 06:39:59;;;;;;;66.00;22.05;;;10.80;99.90;;;;;;5104930;28;20063;-69
2021/12/30 06:42:24;;;;;;;73.40;24.45;;;10.90;99.90;;;;;;5105736;28;20043;-69
2021/12/30 06:44:50;;;;;;;66.47;22.75;;;10.90;99.90;;;;;;5086457;28;20092;-69
2021/12/30 06:47:16;;;;;;;67.30;24.95;;;10.90;99.90;;;;;;5099499;28;20044;-69
2021/12/30 06:49:41;;;;;;;61.38;21.20;;;10.90;99.90;;;;;;5087013;28;20074;-69
2021/12/30 06:52:10;;;;;;;64.40;21.92;;;11.00;99.90;;;;;;5107893;28;20450;-69
2021/12/30 06:54:36;;;;;;;65.63;21.27;;;11.00;99.90;;;;;;5108173;28;20074;-69
2021/12/30 06:57:03;;;;;;;56.65;20.98;;;11.00;99.90;;;;;;5105398;28;20043;-69
2021/12/30 06:59:30;;;;;;;52.33;19.00;;;11.00;99.90;;;;;;5106466;28;20050;-69
2021/12/30 07:01:57;;;;;;;50.38;20.20;;;11.30;99.90;;;;;;5108090;28;20053;-70
2021/12/30 07:04:27;;;;;;;49.20;19.10;;;11.10;99.90;;;;;;5108981;28;20505;-69
2021/12/30 07:06:53;;;;;;;40.85;14.20;;;11.10;99.90;;;;;;5106092;28;20050;-69
2021/12/30 07:09:22;;;;;;;43.65;15.70;;;11.10;99.90;;;;;;5089119;28;20036;-69
2021/12/30 07:11:49;;;;;;;37.20;14.93;;;11.20;99.90;;;;;;5087834;28;20105;-69
2021/12/30 07:14:19;;;;;;;32.33;13.35;;;11.20;99.90;;;;;;5106933;28;20047;-69
2021/12/30 07:16:45;;;;;;;31.73;13.27;;;11.20;99.90;;;;;;5086060;28;20046;-69
2021/12/30 07:19:12;;;;;;;32.33;13.90;;;11.10;99.90;;;;;;5107913;28;20115;-69
2021/12/30 07:21:38;;;;;;;33.55;12.85;;;11.30;99.90;;;;;;5103817;28;20059;-69
2021/12/30 07:24:04;;;;;;;32.70;12.68;;;11.20;99.90;;;;;;5106198;28;20067;-69
2021/12/30 07:26:30;;;;;;;35.65;13.43;;;11.20;99.90;;;;;;5104289;28;20480;-69
2021/12/30 07:28:56;;;;;;;30.00;11.57;;;11.20;99.90;;;;;;5108570;28;20131;-69
2021/12/30 07:31:22;;;;;;;26.98;12.18;;;11.20;99.90;;;;;;5108376;28;20444;-69
2021/12/30 07:33:48;;;;;;;25.83;11.50;;;11.20;99.90;;;;;;5071676;28;21902;-69
2021/12/30 07:36:13;;;;;;;25.67;9.43;;;11.80;99.90;;;;;;5106759;28;20034;-69
2021/12/30 07:38:39;;;;;;;21.52;9.80;;;11.20;99.90;;;;;;5099337;28;20046;-69
2021/12/30 07:41:05;;;;;;;17.02;8.20;;;11.30;99.90;;;;;;5107503;28;20042;-69
2021/12/30 07:43:31;;;;;;;17.35;7.88;;;11.30;99.90;;;;;;5107816;28;20035;-69
2021/12/30 07:45:57;;;;;;;16.73;7.90;;;11.30;99.90;;;;;;5073161;28;20047;-69
2021/12/30 07:48:23;;;;;;;13.48;5.80;;;11.30;99.90;;;;;;5104934;28;20040;-69
2021/12/30 07:50:50;;;;;;;14.88;7.03;;;11.30;99.90;;;;;;5101208;28;20047;-69
2021/12/30 07:53:16;;;;;;;14.85;6.50;;;11.40;99.90;;;;;;5105504;28;20124;-69
2021/12/30 07:55:42;;;;;;;13.15;6.28;;;11.40;99.90;;;;;;5107597;28;20502;-69
2021/12/30 07:58:07;;;;;;;18.25;7.65;;;11.40;99.90;;;;;;5104660;28;20259;-69
2021/12/30 08:00:33;;;;;;;13.73;7.13;;;11.40;99.90;;;;;;5090293;28;20050;-69
2021/12/30 08:02:59;;;;;;;12.25;5.55;;;11.40;99.90;;;;;;5106382;28;20043;-69
2021/12/30 08:05:26;;;;;;;11.55;4.70;;;11.40;99.90;;;;;;5093835;28;20234;-69
2021/12/30 08:07:52;;;;;;;9.70;4.60;;;11.40;99.90;;;;;;5102019;28;20062;-69
2021/12/30 08:10:19;;;;;;;9.00;4.05;;;11.40;99.90;;;;;;5084266;28;20048;-69
2021/12/30 08:12:46;;;;;;;10.15;4.88;;;11.40;99.90;;;;;;5098215;28;20040;-70
2021/12/30 08:15:13;;;;;;;9.55;4.15;;;11.50;99.90;;;;;;5105366;28;20036;-69
2021/12/30 08:17:40;;;;;;;6.55;3.05;;;11.50;99.90;;;;;;5108138;28;20514;-69
2021/12/30 08:20:07;;;;;;;6.45;3.42;;;11.50;99.90;;;;;;5069670;28;20042;-69
2021/12/30 08:22:34;;;;;;;6.43;3.17;;;11.50;99.90;;;;;;5067470;28;20040;-69
2021/12/30 08:25:00;;;;;;;6.75;2.92;;;11.50;99.90;;;;;;5082864;28;20447;-70
2021/12/30 08:27:26;;;;;;;4.65;2.35;;;11.50;99.90;;;;;;5106014;28;20050;-70
2021/12/30 08:29:52;;;;;;;4.32;2.75;;;11.50;99.90;;;;;;5088969;28;20040;-70
2021/12/30 08:32:18;;;;;;;4.10;2.10;;;11.50;99.90;;;;;;5089876;28;20479;-70
2021/12/30 08:34:45;;;;;;;4.90;2.40;;;11.50;99.90;;;;;;5100859;28;20151;-70
2021/12/30 08:37:12;;;;;;;4.10;2.45;;;11.60;99.90;;;;;;5104204;28;20044;-70
2021/12/30 08:39:40;;;;;;;3.25;2.22;;;11.50;99.90;;;;;;5105983;28;20040;-70
2021/12/30 08:42:16;;;;;;;3.00;2.00;;;11.60;99.90;;;;;;5086437;28;20032;-70
2021/12/30 08:44:42;;;;;;;4.03;2.35;;;11.60;99.90;;;;;;5111748;28;20380;-69
2021/12/30 08:47:08;;;;;;;6.13;2.47;;;11.60;99.90;;;;;;5091601;28;20108;-69
2021/12/30 08:49:33;;;;;;;3.58;2.25;;;11.60;99.90;;;;;;5110341;28;20049;-69
2021/12/30 08:51:59;;;;;;;5.45;2.80;;;11.70;99.90;;;;;;5112533;28;20075;-70
2021/12/30 08:54:25;;;;;;;5.55;2.85;;;11.70;99.90;;;;;;5084973;28;20552;-70
2021/12/30 08:56:51;;;;;;;6.00;2.75;;;11.70;99.90;;;;;;5100321;28;20081;-70
2021/12/30 08:59:16;;;;;;;5.35;3.20;;;11.70;99.90;;;;;;5106715;28;20080;-70
2021/12/30 09:01:42;;;;;;;5.65;2.72;;;11.70;99.90;;;;;;5106480;28;20035;-70
2021/12/30 09:04:08;;;;;;;5.88;3.50;;;11.80;99.90;;;;;;5073496;28;20114;-70
2021/12/30 09:06:33;;;;;;;7.47;3.72;;;11.80;99.90;;;;;;5110509;28;20039;-70
2021/12/30 09:08:59;;;;;;;6.55;3.83;;;11.80;99.90;;;;;;5086084;28;20044;-69
2021/12/30 09:11:25;;;;;;;7.35;4.22;;;11.90;99.90;;;;;;5104342;28;20143;-69
2021/12/30 09:13:51;;;;;;;7.80;4.45;;;11.90;99.90;;;;;;5090384;28;20421;-69
2021/12/30 09:16:16;;;;;;;9.82;4.07;;;11.90;99.90;;;;;;5090949;28;20039;-69
2021/12/30 09:18:42;;;;;;;11.32;4.55;;;12.00;99.90;;;;;;5108415;28;20043;-69
2021/12/30 09:21:08;;;;;;;13.98;5.22;;;12.00;99.90;;;;;;5111975;28;20048;-69
2021/12/30 09:23:34;;;;;;;11.32;3.90;;;12.00;99.90;;;;;;5087051;28;20047;-69
2021/12/30 09:26:00;;;;;;;13.52;5.63;;;12.00;99.90;;;;;;5109147;28;20043;-69
2021/12/30 09:28:26;;;;;;;8.77;3.95;;;12.10;99.90;;;;;;5108922;28;20402;-69
2021/12/30 09:30:52;;;;;;;9.30;4.72;;;12.10;99.90;;;;;;5105806;28;20040;-70
2021/12/30 09:33:17;;;;;;;10.90;4.28;;;12.10;99.90;;;;;;5089911;28;20139;-70
2021/12/30 09:35:47;;;;;;;11.32;3.53;;;12.10;99.90;;;;;;5083797;28;22132;-70
2021/12/30 09:38:13;;;;;;;12.90;3.33;;;12.20;99.90;;;;;;5085203;28;20047;-70
2021/12/30 09:40:39;;;;;;;9.18;3.65;;;12.20;99.90;;;;;;5088150;28;20046;-70
2021/12/30 09:43:09;;;;;;;10.27;3.33;;;12.20;99.90;;;;;;5099119;28;20115;-70
2021/12/30 09:45:38;;;;;;;8.48;3.50;;;12.20;99.90;;;;;;5106050;28;20067;-70
2021/12/30 09:48:07;;;;;;;9.07;3.90;;;12.20;99.90;;;;;;5083665;28;20384;-70
2021/12/30 09:50:40;;;;;;;8.43;4.38;;;12.20;99.90;;;;;;5110598;28;20152;-70
2021/12/30 09:53:06;;;;;;;11.18;3.78;;;12.20;99.90;;;;;;5107807;28;20070;-70
2021/12/30 09:55:32;;;;;;;9.25;5.00;;;12.20;99.90;;;;;;5086312;28;20050;-70
2021/12/30 09:57:59;;;;;;;8.90;4.88;;;12.30;99.90;;;;;;5074398;28;20047;-70
2021/12/30 10:00:25;;;;;;;11.68;4.55;;;12.20;99.90;;;;;;5104869;28;20130;-70
2021/12/30 10:02:51;;;;;;;13.93;5.53;;;12.30;99.90;;;;;;5078455;28;20054;-70
2021/12/30 10:05:20;;;;;;;12.82;5.70;;;12.20;99.90;;;;;;5086937;28;20047;-70
2021/12/30 10:07:46;;;;;;;11.95;4.85;;;12.20;99.90;;;;;;5087965;28;20114;-70
2021/12/30 10:10:25;;;;;;;9.80;4.43;;;12.20;99.90;;;;;;5085198;28;20119;-70
2021/12/30 10:12:50;;;;;;;11.68;4.82;;;12.30;99.90;;;;;;5088924;28;20103;-71
2021/12/30 10:15:16;;;;;;;11.85;4.25;;;12.20;99.90;;;;;;5105625;28;20117;-70
2021/12/30 10:17:42;;;;;;;10.25;4.00;;;12.20;99.90;;;;;;5106919;28;20466;-70
2021/12/30 10:20:22;;;;;;;13.60;3.28;;;12.20;99.90;;;;;;5081576;28;20054;-70
2021/12/30 10:22:48;;;;;;;10.80;3.50;;;12.30;99.90;;;;;;5087423;28;20092;-70
2021/12/30 10:25:50;;;;;;;10.93;3.70;;;12.30;99.90;;;;;;5090539;28;20044;-70
2021/12/30 10:28:18;;;;;;;10.05;2.92;;;12.30;99.90;;;;;;5097964;28;20441;-70
2021/12/30 10:30:43;;;;;;;11.23;3.40;;;12.30;99.90;;;;;;5088360;28;20059;-70
2021/12/30 10:33:12;;;;;;;7.80;3.20;;;12.30;99.90;;;;;;5090064;28;20115;-70
2021/12/30 10:35:38;;;;;;;10.73;3.20;;;12.30;99.90;;;;;;5106452;28;20056;-70
2021/12/30 10:38:09;;;;;;;9.65;3.22;;;12.30;99.90;;;;;;5085965;28;20039;-70
2021/12/30 10:40:36;;;;;;;12.30;3.67;;;12.30;99.90;;;;;;5090077;28;20096;-70
2021/12/30 10:43:37;;;;;;;10.13;3.15;;;12.30;99.90;;;;;;5109361;27;20475;-70
2021/12/30 10:46:30;;;;;;;17.83;3.83;;;12.30;99.90;;;;;;5082675;28;20109;-70
2021/12/30 10:49:01;;;;;;;15.25;4.15;;;12.30;99.90;;;;;;5081692;27;20048;-70
2021/12/30 10:51:43;;;;;;;12.23;4.55;;;12.20;99.90;;;;;;5100493;28;20151;-69
2021/12/30 10:54:17;;;;;;;18.95;4.15;;;12.30;99.90;;;;;;5093315;28;20123;-69
2021/12/30 10:56:46;;;;;;;11.65;3.47;;;12.20;99.90;;;;;;5096389;28;20063;-69
2021/12/30 10:59:20;;;;;;;15.88;4.72;;;12.20;99.90;;;;;;5081576;28;20048;-69
2021/12/30 11:01:52;;;;;;;20.33;5.90;;;12.30;99.90;;;;;;5090940;28;20410;-70
2021/12/30 11:04:19;;;;;;;19.08;5.38;;;12.20;99.90;;;;;;5107260;28;20031;-69
2021/12/30 11:06:46;;;;;;;18.25;4.93;;;12.20;99.90;;;;;;5082922;28;20055;-69
2021/12/30 11:09:20;;;;;;;20.70;4.20;;;12.20;99.90;;;;;;5103252;28;20047;-69
2021/12/30 11:11:50;;;;;;;18.00;4.72;;;12.20;99.90;;;;;;5075086;28;20044;-69
2021/12/30 11:14:22;;;;;;;23.05;6.15;;;12.20;99.90;;;;;;5094772;28;20043;-69
2021/12/30 11:17:17;;;;;;;26.42;5.10;;;12.20;99.90;;;;;;5100430;27;20043;-70
2021/12/30 11:19:52;;;;;;;34.22;7.35;;;12.30;99.90;;;;;;5069861;28;20040;-69
2021/12/30 11:22:21;;;;;;;21.92;5.30;;;12.30;99.90;;;;;;5090839;28;20130;-69
2021/12/30 11:24:49;;;;;;;22.67;5.25;;;12.30;99.90;;;;;;5102092;28;20086;-69
2021/12/30 11:27:17;;;;;;;25.15;6.70;;;12.30;99.90;;;;;;5089196;28;20510;-68
2021/12/30 11:29:45;;;;;;;21.50;5.80;;;12.30;99.90;;;;;;5090990;28;20093;-69
2021/12/30 11:32:15;;;;;;;25.98;4.78;;;12.30;99.90;;;;;;5108972;28;20570;-69
2021/12/30 11:34:42;;;;;;;25.65;6.10;;;12.30;99.90;;;;;;5107202;28;20080;-68
2021/12/30 11:37:08;;;;;;;19.95;5.78;;;12.30;99.90;;;;;;5104378;28;20079;-69
2021/12/30 11:39:35;;;;;;;19.63;4.43;;;12.30;99.90;;;;;;5106188;28;20429;-70
2021/12/30 11:42:03;;;;;;;23.25;5.53;;;12.30;99.90;;;;;;5108548;28;20243;-68
2021/12/30 11:44:36;;;;;;;20.10;5.30;;;12.30;99.90;;;;;;5107740;28;20122;-69
2021/12/30 11:47:03;;;;;;;34.55;7.72;;;12.30;99.90;;;;;;5082621;28;20115;-69
2021/12/30 11:49:52;;;;;;;26.90;5.35;;;12.30;99.90;;;;;;5087904;28;20036;-69
2021/12/30 11:52:49;;;;;;;27.02;5.63;;;12.30;99.90;;;;;;5095851;28;20071;-69
2021/12/30 11:55:50;;;;;;;23.52;5.95;;;12.30;99.90;;;;;;5099281;28;20036;-69
2021/12/30 11:58:46;;;;;;;26.75;5.18;;;12.30;99.90;;;;;;5099760;28;20047;-69
2021/12/30 12:01:21;;;;;;;21.40;6.10;;;12.30;99.90;;;;;;5086476;28;20052;-69
2021/12/30 12:03:52;;;;;;;25.75;5.68;;;12.50;99.90;;;;;;5102696;28;20407;-69
2021/12/30 12:06:27;;;;;;;18.55;4.40;;;12.50;99.90;;;;;;5085407;28;20055;-70
2021/12/30 12:08:56;;;;;;;22.52;5.78;;;12.40;99.90;;;;;;5104312;28;20655;-69
2021/12/30 12:11:25;;;;;;;25.63;5.55;;;12.40;99.90;;;;;;5105579;28;20036;-69
2021/12/30 12:13:54;;;;;;;21.92;5.78;;;12.40;99.90;;;;;;5088210;28;20517;-69
2021/12/30 12:16:53;;;;;;;26.80;5.80;;;12.40;99.90;;;;;;5106457;28;20032;-69
2021/12/30 12:19:22;;;;;;;18.35;5.70;;;12.40;99.90;;;;;;5086484;28;20040;-69
2021/12/30 12:21:52;;;;;;;25.35;5.63;;;12.40;99.90;;;;;;5105862;28;20475;-69
2021/12/30 12:24:21;;;;;;;27.50;6.43;;;12.40;99.90;;;;;;5085471;28;20097;-69
2021/12/30 12:26:54;;;;;;;22.02;5.43;;;12.40;99.90;;;;;;5107586;28;20044;-69
2021/12/30 12:29:24;;;;;;;21.20;5.25;;;12.40;99.90;;;;;;5101999;28;20043;-69
2021/12/30 12:32:03;;;;;;;27.48;5.97;;;12.40;99.90;;;;;;5060208;28;20031;-69
2021/12/30 12:34:42;;;;;;;20.63;5.10;;;12.40;99.90;;;;;;5102573;28;20137;-69
2021/12/30 12:37:37;;;;;;;18.38;4.28;;;12.40;99.90;;;;;;5103956;28;20047;-69
2021/12/30 12:40:23;;;;;;;18.85;5.03;;;12.40;99.90;;;;;;5083235;28;20043;-69
2021/12/30 12:42:48;;;;;;;24.23;5.50;;;12.40;99.90;;;;;;5105162;28;20036;-69